sensor_id;sensor_type;location;lat;lon;timestamp;P1;durP1;ratioP1;P2;durP2;ratioP2
24084;SDS011;12268;52.110;5.548;2024-02-16T00:00:07;10.30;;;6.13;;
24084;SDS011;12268;52.110;5.548;2024-02-16T00:02:33;13.18;;;6.13;;
24084;SDS011;12268;52.110;5.548;2024-02-16T00:04:59;10.32;;;6.38;;
24084;SDS011;12268;52.110;5.548;2024-02-16T00:07:24;10.27;;;5.40;;
24084;SDS011;12268;52.110;5.548;2024-02-16T00:09:50;9.90;;;5.55;;
24084;SDS011;12268;52.110;5.548;2024-02-16T00:12:16;8.73;;;5.60;;
24084;SDS011;12268;52.110;5.548;2024-02-16T00:14:41;13.57;;;5.78;;
24084;SDS011;12268;52.110;5.548;2024-02-16T00:17:07;10.13;;;5.85;;
24084;SDS011;12268;52.110;5.548;2024-02-16T00:19:35;10.27;;;5.88;;
24084;SDS011;12268;52.110;5.548;2024-02-16T00:22:01;8.55;;;6.07;;
24084;SDS011;12268;52.110;5.548;2024-02-16T00:24:27;11.63;;;6.03;;
24084;SDS011;12268;52.110;5.548;2024-02-16T00:26:52;8.90;;;6.15;;
24084;SDS011;12268;52.110;5.548;2024-02-16T00:29:18;9.63;;;6.15;;
24084;SDS011;12268;52.110;5.548;2024-02-16T00:31:44;10.48;;;6.00;;
24084;SDS011;12268;52.110;5.548;2024-02-16T00:34:10;11.20;;;6.82;;
24084;SDS011;12268;52.110;5.548;2024-02-16T00:36:35;11.63;;;6.00;;
24084;SDS011;12268;52.110;5.548;2024-02-16T00:39:01;16.25;;;6.40;;
24084;SDS011;12268;52.110;5.548;2024-02-16T00:41:28;9.40;;;6.50;;
24084;SDS011;12268;52.110;5.548;2024-02-16T00:43:54;13.52;;;6.60;;
24084;SDS011;12268;52.110;5.548;2024-02-16T00:46:21;11.35;;;6.38;;
24084;SDS011;12268;52.110;5.548;2024-02-16T00:48:48;11.43;;;6.53;;
24084;SDS011;12268;52.110;5.548;2024-02-16T00:51:17;15.05;;;6.75;;
24084;SDS011;12268;52.110;5.548;2024-02-16T00:53:42;12.00;;;6.38;;
24084;SDS011;12268;52.110;5.548;2024-02-16T00:56:08;11.93;;;7.18;;
24084;SDS011;12268;52.110;5.548;2024-02-16T00:58:34;12.60;;;6.65;;
24084;SDS011;12268;52.110;5.548;2024-02-16T01:01:00;10.75;;;5.97;;
24084;SDS011;12268;52.110;5.548;2024-02-16T01:03:26;10.85;;;6.10;;
24084;SDS011;12268;52.110;5.548;2024-02-16T01:05:52;10.48;;;6.28;;
24084;SDS011;12268;52.110;5.548;2024-02-16T01:08:18;12.43;;;6.60;;
24084;SDS011;12268;52.110;5.548;2024-02-16T01:10:44;9.13;;;6.32;;
24084;SDS011;12268;52.110;5.548;2024-02-16T01:13:09;11.00;;;6.30;;
24084;SDS011;12268;52.110;5.548;2024-02-16T01:15:35;9.65;;;6.75;;
24084;SDS011;12268;52.110;5.548;2024-02-16T01:18:02;9.35;;;6.55;;
24084;SDS011;12268;52.110;5.548;2024-02-16T01:20:29;11.13;;;6.60;;
24084;SDS011;12268;52.110;5.548;2024-02-16T01:22:56;11.40;;;6.50;;
24084;SDS011;12268;52.110;5.548;2024-02-16T01:25:22;10.98;;;6.53;;
24084;SDS011;12268;52.110;5.548;2024-02-16T01:27:47;10.68;;;6.72;;
24084;SDS011;12268;52.110;5.548;2024-02-16T01:30:13;10.80;;;6.38;;
24084;SDS011;12268;52.110;5.548;2024-02-16T01:32:40;15.13;;;7.35;;
24084;SDS011;12268;52.110;5.548;2024-02-16T01:35:06;8.57;;;6.85;;
24084;SDS011;12268;52.110;5.548;2024-02-16T01:37:32;10.13;;;6.75;;
24084;SDS011;12268;52.110;5.548;2024-02-16T01:39:58;11.70;;;6.97;;
24084;SDS011;12268;52.110;5.548;2024-02-16T01:42:24;12.77;;;6.63;;
24084;SDS011;12268;52.110;5.548;2024-02-16T01:44:50;11.55;;;7.13;;
24084;SDS011;12268;52.110;5.548;2024-02-16T01:47:16;10.98;;;6.80;;
24084;SDS011;12268;52.110;5.548;2024-02-16T01:49:43;11.23;;;6.50;;
24084;SDS011;12268;52.110;5.548;2024-02-16T04:00:29;9.23;;;5.97;;
24084;SDS011;12268;52.110;5.548;2024-02-16T04:02:54;9.98;;;5.35;;
24084;SDS011;12268;52.110;5.548;2024-02-16T04:05:20;8.38;;;5.45;;
24084;SDS011;12268;52.110;5.548;2024-02-16T04:07:46;8.48;;;5.47;;
24084;SDS011;12268;52.110;5.548;2024-02-16T04:10:11;10.23;;;5.13;;
24084;SDS011;12268;52.110;5.548;2024-02-16T04:12:37;9.45;;;5.53;;
24084;SDS011;12268;52.110;5.548;2024-02-16T04:15:03;11.45;;;5.45;;
24084;SDS011;12268;52.110;5.548;2024-02-16T04:17:29;9.20;;;5.70;;
24084;SDS011;12268;52.110;5.548;2024-02-16T04:19:54;10.50;;;5.70;;
24084;SDS011;12268;52.110;5.548;2024-02-16T04:53:24;10.20;;;5.80;;
24084;SDS011;12268;52.110;5.548;2024-02-16T04:55:50;7.20;;;5.00;;
24084;SDS011;12268;52.110;5.548;2024-02-16T04:58:16;10.95;;;5.40;;
24084;SDS011;12268;52.110;5.548;2024-02-16T05:00:41;9.88;;;5.78;;
24084;SDS011;12268;52.110;5.548;2024-02-16T05:03:07;7.40;;;5.07;;
24084;SDS011;12268;52.110;5.548;2024-02-16T05:08:01;9.13;;;5.05;;
24084;SDS011;12268;52.110;5.548;2024-02-16T05:10:26;9.10;;;5.03;;
24084;SDS011;12268;52.110;5.548;2024-02-16T05:12:53;11.88;;;5.22;;
24084;SDS011;12268;52.110;5.548;2024-02-16T05:15:19;9.82;;;5.20;;
24084;SDS011;12268;52.110;5.548;2024-02-16T05:17:46;7.40;;;4.85;;
24084;SDS011;12268;52.110;5.548;2024-02-16T05:20:14;6.88;;;4.93;;
24084;SDS011;12268;52.110;5.548;2024-02-16T05:22:44;8.73;;;4.82;;
24084;SDS011;12268;52.110;5.548;2024-02-16T05:25:11;8.23;;;4.60;;
24084;SDS011;12268;52.110;5.548;2024-02-16T05:27:37;7.78;;;4.82;;
24084;SDS011;12268;52.110;5.548;2024-02-16T05:30:06;9.57;;;4.97;;
24084;SDS011;12268;52.110;5.548;2024-02-16T05:35:00;6.35;;;4.32;;
24084;SDS011;12268;52.110;5.548;2024-02-16T05:37:29;7.75;;;4.50;;
24084;SDS011;12268;52.110;5.548;2024-02-16T05:39:57;11.82;;;4.55;;
24084;SDS011;12268;52.110;5.548;2024-02-16T05:42:33;8.50;;;4.30;;
24084;SDS011;12268;52.110;5.548;2024-02-16T05:44:59;8.45;;;4.80;;
24084;SDS011;12268;52.110;5.548;2024-02-16T05:47:25;9.20;;;4.38;;
24084;SDS011;12268;52.110;5.548;2024-02-16T05:49:51;7.30;;;4.43;;
24084;SDS011;12268;52.110;5.548;2024-02-16T05:52:16;7.38;;;4.70;;
24084;SDS011;12268;52.110;5.548;2024-02-16T05:54:42;10.63;;;4.63;;
24084;SDS011;12268;52.110;5.548;2024-02-16T05:57:09;8.98;;;4.70;;
24084;SDS011;12268;52.110;5.548;2024-02-16T05:59:34;7.45;;;3.92;;
24084;SDS011;12268;52.110;5.548;2024-02-16T06:02:00;8.25;;;4.70;;
24084;SDS011;12268;52.110;5.548;2024-02-16T06:04:26;8.80;;;4.68;;
24084;SDS011;12268;52.110;5.548;2024-02-16T06:06:51;6.93;;;4.63;;
24084;SDS011;12268;52.110;5.548;2024-02-16T06:09:18;10.23;;;4.55;;
24084;SDS011;12268;52.110;5.548;2024-02-16T06:11:44;6.07;;;4.22;;
24084;SDS011;12268;52.110;5.548;2024-02-16T06:14:10;9.40;;;4.60;;
24084;SDS011;12268;52.110;5.548;2024-02-16T06:16:36;6.88;;;4.53;;
24084;SDS011;12268;52.110;5.548;2024-02-16T06:19:01;7.68;;;4.40;;
24084;SDS011;12268;52.110;5.548;2024-02-16T06:21:27;8.70;;;4.93;;
24084;SDS011;12268;52.110;5.548;2024-02-16T06:23:52;6.78;;;4.82;;
24084;SDS011;12268;52.110;5.548;2024-02-16T06:26:18;7.10;;;4.00;;
24084;SDS011;12268;52.110;5.548;2024-02-16T06:28:45;6.63;;;4.35;;
24084;SDS011;12268;52.110;5.548;2024-02-16T06:31:11;8.90;;;3.90;;
24084;SDS011;12268;52.110;5.548;2024-02-16T06:33:38;7.95;;;4.43;;
24084;SDS011;12268;52.110;5.548;2024-02-16T06:36:03;7.13;;;4.35;;
24084;SDS011;12268;52.110;5.548;2024-02-16T06:38:29;7.05;;;4.68;;
24084;SDS011;12268;52.110;5.548;2024-02-16T06:40:56;9.20;;;3.88;;
24084;SDS011;12268;52.110;5.548;2024-02-16T06:43:21;5.63;;;4.00;;
24084;SDS011;12268;52.110;5.548;2024-02-16T06:45:47;10.32;;;4.22;;
24084;SDS011;12268;52.110;5.548;2024-02-16T06:48:13;8.65;;;5.07;;
24084;SDS011;12268;52.110;5.548;2024-02-16T06:50:38;9.40;;;4.70;;
24084;SDS011;12268;52.110;5.548;2024-02-16T06:53:04;11.13;;;4.30;;
24084;SDS011;12268;52.110;5.548;2024-02-16T06:55:30;7.53;;;4.28;;
24084;SDS011;12268;52.110;5.548;2024-02-16T06:57:56;6.63;;;4.15;;
24084;SDS011;12268;52.110;5.548;2024-02-16T07:00:22;6.53;;;4.32;;
24084;SDS011;12268;52.110;5.548;2024-02-16T07:02:47;10.63;;;4.60;;
24084;SDS011;12268;52.110;5.548;2024-02-16T07:05:13;6.85;;;4.10;;
24084;SDS011;12268;52.110;5.548;2024-02-16T07:07:40;10.13;;;4.15;;
24084;SDS011;12268;52.110;5.548;2024-02-16T07:10:06;7.45;;;3.97;;
24084;SDS011;12268;52.110;5.548;2024-02-16T07:12:33;8.07;;;4.45;;
24084;SDS011;12268;52.110;5.548;2024-02-16T07:14:58;8.30;;;4.47;;
24084;SDS011;12268;52.110;5.548;2024-02-16T07:17:24;8.30;;;4.32;;
24084;SDS011;12268;52.110;5.548;2024-02-16T07:19:50;7.40;;;4.30;;
24084;SDS011;12268;52.110;5.548;2024-02-16T07:22:15;8.68;;;4.65;;
24084;SDS011;12268;52.110;5.548;2024-02-16T07:24:41;9.95;;;4.82;;
24084;SDS011;12268;52.110;5.548;2024-02-16T07:27:06;6.57;;;4.07;;
24084;SDS011;12268;52.110;5.548;2024-02-16T07:29:32;9.65;;;4.47;;
24084;SDS011;12268;52.110;5.548;2024-02-16T07:31:59;7.25;;;4.85;;
24084;SDS011;12268;52.110;5.548;2024-02-16T07:34:25;7.00;;;4.38;;
24084;SDS011;12268;52.110;5.548;2024-02-16T07:36:50;8.43;;;4.80;;
24084;SDS011;12268;52.110;5.548;2024-02-16T07:39:16;8.98;;;4.70;;
24084;SDS011;12268;52.110;5.548;2024-02-16T07:41:42;7.50;;;4.80;;
24084;SDS011;12268;52.110;5.548;2024-02-16T07:44:08;7.63;;;4.65;;
24084;SDS011;12268;52.110;5.548;2024-02-16T07:46:39;5.80;;;4.20;;
24084;SDS011;12268;52.110;5.548;2024-02-16T07:49:05;8.25;;;4.65;;
24084;SDS011;12268;52.110;5.548;2024-02-16T07:51:31;6.32;;;4.72;;
24084;SDS011;12268;52.110;5.548;2024-02-16T07:53:57;9.77;;;4.57;;
24084;SDS011;12268;52.110;5.548;2024-02-16T07:56:22;6.70;;;4.90;;
24084;SDS011;12268;52.110;5.548;2024-02-16T07:58:48;7.05;;;4.75;;
24084;SDS011;12268;52.110;5.548;2024-02-16T08:01:13;7.20;;;4.68;;
24084;SDS011;12268;52.110;5.548;2024-02-16T08:03:42;10.07;;;4.90;;
24084;SDS011;12268;52.110;5.548;2024-02-16T08:06:07;7.93;;;4.63;;
24084;SDS011;12268;52.110;5.548;2024-02-16T08:08:33;10.13;;;5.30;;
24084;SDS011;12268;52.110;5.548;2024-02-16T08:10:59;6.97;;;4.90;;
24084;SDS011;12268;52.110;5.548;2024-02-16T08:13:24;9.18;;;4.60;;
24084;SDS011;12268;52.110;5.548;2024-02-16T08:15:50;8.18;;;4.95;;
24084;SDS011;12268;52.110;5.548;2024-02-16T08:18:17;9.80;;;5.20;;
24084;SDS011;12268;52.110;5.548;2024-02-16T08:20:42;10.77;;;5.07;;
24084;SDS011;12268;52.110;5.548;2024-02-16T08:23:08;9.65;;;5.10;;
24084;SDS011;12268;52.110;5.548;2024-02-16T08:25:34;11.93;;;5.03;;
24084;SDS011;12268;52.110;5.548;2024-02-16T08:28:00;10.50;;;4.75;;
24084;SDS011;12268;52.110;5.548;2024-02-16T08:30:27;8.05;;;4.93;;
24084;SDS011;12268;52.110;5.548;2024-02-16T08:32:52;7.95;;;4.82;;
24084;SDS011;12268;52.110;5.548;2024-02-16T08:35:19;9.32;;;5.60;;
24084;SDS011;12268;52.110;5.548;2024-02-16T08:37:44;10.68;;;4.90;;
24084;SDS011;12268;52.110;5.548;2024-02-16T08:40:12;8.48;;;5.32;;
24084;SDS011;12268;52.110;5.548;2024-02-16T08:42:41;9.40;;;5.17;;
24084;SDS011;12268;52.110;5.548;2024-02-16T08:45:09;9.93;;;4.72;;
24084;SDS011;12268;52.110;5.548;2024-02-16T08:47:37;11.23;;;5.00;;
24084;SDS011;12268;52.110;5.548;2024-02-16T08:50:04;7.82;;;5.38;;
24084;SDS011;12268;52.110;5.548;2024-02-16T08:52:29;8.45;;;5.10;;
24084;SDS011;12268;52.110;5.548;2024-02-16T08:54:56;11.95;;;5.60;;
24084;SDS011;12268;52.110;5.548;2024-02-16T08:57:22;10.43;;;5.53;;
24084;SDS011;12268;52.110;5.548;2024-02-16T08:59:47;8.88;;;5.57;;
24084;SDS011;12268;52.110;5.548;2024-02-16T09:02:13;10.02;;;5.72;;
24084;SDS011;12268;52.110;5.548;2024-02-16T09:04:38;10.70;;;5.38;;
24084;SDS011;12268;52.110;5.548;2024-02-16T09:07:05;9.98;;;5.75;;
24084;SDS011;12268;52.110;5.548;2024-02-16T09:09:30;8.15;;;5.18;;
24084;SDS011;12268;52.110;5.548;2024-02-16T09:11:56;11.48;;;6.15;;
24084;SDS011;12268;52.110;5.548;2024-02-16T09:14:22;8.38;;;5.35;;
24084;SDS011;12268;52.110;5.548;2024-02-16T09:16:48;8.80;;;5.70;;
24084;SDS011;12268;52.110;5.548;2024-02-16T09:19:17;11.38;;;5.63;;
24084;SDS011;12268;52.110;5.548;2024-02-16T09:21:43;8.63;;;5.57;;
24084;SDS011;12268;52.110;5.548;2024-02-16T09:24:08;9.23;;;5.65;;
24084;SDS011;12268;52.110;5.548;2024-02-16T09:26:36;10.48;;;6.40;;
24084;SDS011;12268;52.110;5.548;2024-02-16T09:29:01;12.40;;;6.07;;
24084;SDS011;12268;52.110;5.548;2024-02-16T09:31:27;9.77;;;5.40;;
24084;SDS011;12268;52.110;5.548;2024-02-16T09:33:53;12.07;;;6.22;;
24084;SDS011;12268;52.110;5.548;2024-02-16T09:36:19;11.95;;;6.60;;
24084;SDS011;12268;52.110;5.548;2024-02-16T09:38:44;11.90;;;5.70;;
24084;SDS011;12268;52.110;5.548;2024-02-16T09:41:10;10.75;;;6.20;;
24084;SDS011;12268;52.110;5.548;2024-02-16T09:43:37;9.30;;;6.25;;
24084;SDS011;12268;52.110;5.548;2024-02-16T09:46:04;10.43;;;5.63;;
24084;SDS011;12268;52.110;5.548;2024-02-16T09:48:30;12.23;;;6.57;;
24084;SDS011;12268;52.110;5.548;2024-02-16T09:50:57;12.95;;;5.95;;
24084;SDS011;12268;52.110;5.548;2024-02-16T09:53:27;13.98;;;6.75;;
24084;SDS011;12268;52.110;5.548;2024-02-16T09:55:54;9.50;;;6.45;;
24084;SDS011;12268;52.110;5.548;2024-02-16T09:58:19;10.20;;;6.07;;
24084;SDS011;12268;52.110;5.548;2024-02-16T10:00:52;13.32;;;6.82;;
24084;SDS011;12268;52.110;5.548;2024-02-16T10:05:52;12.52;;;7.03;;
24084;SDS011;12268;52.110;5.548;2024-02-16T10:08:28;14.15;;;7.22;;
24084;SDS011;12268;52.110;5.548;2024-02-16T10:11:00;12.90;;;6.60;;
24084;SDS011;12268;52.110;5.548;2024-02-16T10:13:29;12.43;;;6.88;;
24084;SDS011;12268;52.110;5.548;2024-02-16T10:16:08;12.57;;;6.70;;
24084;SDS011;12268;52.110;5.548;2024-02-16T10:18:38;10.50;;;6.57;;
24084;SDS011;12268;52.110;5.548;2024-02-16T10:21:04;12.52;;;6.65;;
24084;SDS011;12268;52.110;5.548;2024-02-16T10:23:30;14.52;;;7.78;;
24084;SDS011;12268;52.110;5.548;2024-02-16T10:25:57;14.07;;;7.40;;
24084;SDS011;12268;52.110;5.548;2024-02-16T10:28:24;11.60;;;7.55;;
24084;SDS011;12268;52.110;5.548;2024-02-16T10:30:56;13.95;;;7.35;;
24084;SDS011;12268;52.110;5.548;2024-02-16T10:33:27;10.90;;;7.47;;
24084;SDS011;12268;52.110;5.548;2024-02-16T10:35:55;15.77;;;8.02;;
24084;SDS011;12268;52.110;5.548;2024-02-16T10:38:25;10.27;;;6.43;;
24084;SDS011;12268;52.110;5.548;2024-02-16T10:40:52;13.05;;;7.22;;
24084;SDS011;12268;52.110;5.548;2024-02-16T10:43:18;12.77;;;8.23;;
24084;SDS011;12268;52.110;5.548;2024-02-16T10:45:46;10.85;;;7.50;;
24084;SDS011;12268;52.110;5.548;2024-02-16T10:48:14;14.05;;;8.63;;
24084;SDS011;12268;52.110;5.548;2024-02-16T10:50:40;15.00;;;8.27;;
24084;SDS011;12268;52.110;5.548;2024-02-16T10:53:11;14.27;;;9.35;;
24084;SDS011;12268;52.110;5.548;2024-02-16T10:55:44;11.35;;;7.35;;
24084;SDS011;12268;52.110;5.548;2024-02-16T10:58:10;12.25;;;7.38;;
24084;SDS011;12268;52.110;5.548;2024-02-16T11:00:47;11.85;;;8.75;;
24084;SDS011;12268;52.110;5.548;2024-02-16T11:03:23;11.82;;;7.10;;
24084;SDS011;12268;52.110;5.548;2024-02-16T11:05:50;10.73;;;7.55;;
24084;SDS011;12268;52.110;5.548;2024-02-16T11:08:17;16.95;;;9.35;;
24084;SDS011;12268;52.110;5.548;2024-02-16T11:11:02;16.67;;;10.18;;
24084;SDS011;12268;52.110;5.548;2024-02-16T11:13:32;17.05;;;10.70;;
24084;SDS011;12268;52.110;5.548;2024-02-16T11:15:59;16.90;;;10.68;;
24084;SDS011;12268;52.110;5.548;2024-02-16T11:18:38;17.20;;;11.75;;
24084;SDS011;12268;52.110;5.548;2024-02-16T11:21:05;19.00;;;11.53;;
24084;SDS011;12268;52.110;5.548;2024-02-16T11:23:32;20.52;;;13.40;;
24084;SDS011;12268;52.110;5.548;2024-02-16T11:26:01;19.23;;;12.63;;
24084;SDS011;12268;52.110;5.548;2024-02-16T11:28:34;18.40;;;12.43;;
24084;SDS011;12268;52.110;5.548;2024-02-16T11:31:00;23.58;;;14.52;;
24084;SDS011;12268;52.110;5.548;2024-02-16T11:33:27;20.10;;;13.10;;
24084;SDS011;12268;52.110;5.548;2024-02-16T11:35:57;19.92;;;14.02;;
24084;SDS011;12268;52.110;5.548;2024-02-16T11:38:25;18.30;;;12.68;;
24084;SDS011;12268;52.110;5.548;2024-02-16T11:40:55;17.90;;;13.32;;
24084;SDS011;12268;52.110;5.548;2024-02-16T11:43:22;20.13;;;13.63;;
24084;SDS011;12268;52.110;5.548;2024-02-16T11:45:48;25.67;;;13.43;;
24084;SDS011;12268;52.110;5.548;2024-02-16T11:48:18;19.95;;;13.07;;
24084;SDS011;12268;52.110;5.548;2024-02-16T11:50:48;21.25;;;13.55;;
24084;SDS011;12268;52.110;5.548;2024-02-16T11:53:17;21.10;;;12.85;;
24084;SDS011;12268;52.110;5.548;2024-02-16T11:58:14;19.95;;;12.63;;
24084;SDS011;12268;52.110;5.548;2024-02-16T12:00:41;21.83;;;14.10;;
24084;SDS011;12268;52.110;5.548;2024-02-16T12:03:07;21.60;;;13.73;;
24084;SDS011;12268;52.110;5.548;2024-02-16T12:05:33;22.50;;;13.90;;
24084;SDS011;12268;52.110;5.548;2024-02-16T12:07:58;20.63;;;13.40;;
24084;SDS011;12268;52.110;5.548;2024-02-16T12:10:24;21.08;;;13.23;;
24084;SDS011;12268;52.110;5.548;2024-02-16T12:12:52;23.80;;;15.48;;
24084;SDS011;12268;52.110;5.548;2024-02-16T12:15:17;18.17;;;12.50;;
24084;SDS011;12268;52.110;5.548;2024-02-16T12:17:44;25.05;;;15.32;;
24084;SDS011;12268;52.110;5.548;2024-02-16T12:20:13;23.92;;;14.10;;
24084;SDS011;12268;52.110;5.548;2024-02-16T12:22:39;25.20;;;16.05;;
24084;SDS011;12268;52.110;5.548;2024-02-16T12:25:05;27.08;;;15.98;;
24084;SDS011;12268;52.110;5.548;2024-02-16T12:27:31;23.52;;;15.73;;
24084;SDS011;12268;52.110;5.548;2024-02-16T12:29:56;25.38;;;14.40;;
24084;SDS011;12268;52.110;5.548;2024-02-16T12:32:22;24.63;;;15.50;;
24084;SDS011;12268;52.110;5.548;2024-02-16T12:34:48;28.05;;;14.82;;
24084;SDS011;12268;52.110;5.548;2024-02-16T12:37:14;29.90;;;16.55;;
24084;SDS011;12268;52.110;5.548;2024-02-16T12:39:40;25.38;;;15.38;;
24084;SDS011;12268;52.110;5.548;2024-02-16T12:42:06;29.00;;;16.45;;
24084;SDS011;12268;52.110;5.548;2024-02-16T12:44:32;27.55;;;15.05;;
24084;SDS011;12268;52.110;5.548;2024-02-16T12:46:57;20.33;;;13.88;;
24084;SDS011;12268;52.110;5.548;2024-02-16T12:49:23;22.38;;;13.10;;
24084;SDS011;12268;52.110;5.548;2024-02-16T12:51:49;21.38;;;12.63;;
24084;SDS011;12268;52.110;5.548;2024-02-16T12:54:15;18.02;;;10.68;;
24084;SDS011;12268;52.110;5.548;2024-02-16T12:56:43;16.90;;;10.80;;
24084;SDS011;12268;52.110;5.548;2024-02-16T12:59:10;13.45;;;8.07;;
24084;SDS011;12268;52.110;5.548;2024-02-16T13:01:36;11.27;;;7.72;;
24084;SDS011;12268;52.110;5.548;2024-02-16T13:04:02;12.00;;;8.13;;
24084;SDS011;12268;52.110;5.548;2024-02-16T13:06:28;11.50;;;7.53;;
24084;SDS011;12268;52.110;5.548;2024-02-16T13:08:53;9.55;;;6.57;;
24084;SDS011;12268;52.110;5.548;2024-02-16T13:11:19;14.13;;;6.63;;
24084;SDS011;12268;52.110;5.548;2024-02-16T13:13:44;9.70;;;6.43;;
24084;SDS011;12268;52.110;5.548;2024-02-16T13:16:10;10.20;;;5.35;;
24084;SDS011;12268;52.110;5.548;2024-02-16T13:18:36;9.27;;;5.20;;
24084;SDS011;12268;52.110;5.548;2024-02-16T13:21:01;9.10;;;5.13;;
24084;SDS011;12268;52.110;5.548;2024-02-16T13:23:27;8.98;;;5.82;;
24084;SDS011;12268;52.110;5.548;2024-02-16T13:25:54;9.35;;;6.90;;
24084;SDS011;12268;52.110;5.548;2024-02-16T13:28:20;13.45;;;7.72;;
24084;SDS011;12268;52.110;5.548;2024-02-16T13:30:45;12.35;;;7.88;;
24084;SDS011;12268;52.110;5.548;2024-02-16T13:33:11;9.98;;;6.28;;
24084;SDS011;12268;52.110;5.548;2024-02-16T13:35:37;7.95;;;5.63;;
24084;SDS011;12268;52.110;5.548;2024-02-16T13:38:03;10.15;;;5.28;;
24084;SDS011;12268;52.110;5.548;2024-02-16T13:40:29;7.15;;;4.95;;
24084;SDS011;12268;52.110;5.548;2024-02-16T13:42:54;7.72;;;5.25;;
24084;SDS011;12268;52.110;5.548;2024-02-16T13:45:26;8.23;;;4.88;;
24084;SDS011;12268;52.110;5.548;2024-02-16T13:47:52;7.00;;;4.85;;
24084;SDS011;12268;52.110;5.548;2024-02-16T13:50:18;5.88;;;4.18;;
24084;SDS011;12268;52.110;5.548;2024-02-16T13:52:43;7.60;;;4.20;;
24084;SDS011;12268;52.110;5.548;2024-02-16T13:55:09;6.20;;;4.57;;
24084;SDS011;12268;52.110;5.548;2024-02-16T13:57:34;6.07;;;4.25;;
24084;SDS011;12268;52.110;5.548;2024-02-16T14:00:00;6.05;;;4.00;;
24084;SDS011;12268;52.110;5.548;2024-02-16T14:02:26;7.10;;;4.07;;
24084;SDS011;12268;52.110;5.548;2024-02-16T14:04:52;6.68;;;4.80;;
24084;SDS011;12268;52.110;5.548;2024-02-16T14:07:18;10.27;;;5.32;;
24084;SDS011;12268;52.110;5.548;2024-02-16T14:09:43;6.78;;;4.93;;
24084;SDS011;12268;52.110;5.548;2024-02-16T14:12:09;6.88;;;4.80;;
24084;SDS011;12268;52.110;5.548;2024-02-16T14:14:34;8.75;;;4.30;;
24084;SDS011;12268;52.110;5.548;2024-02-16T14:17:00;9.10;;;4.60;;
24084;SDS011;12268;52.110;5.548;2024-02-16T14:19:25;7.80;;;4.40;;
24084;SDS011;12268;52.110;5.548;2024-02-16T14:21:51;8.05;;;4.30;;
24084;SDS011;12268;52.110;5.548;2024-02-16T14:24:17;8.55;;;4.15;;
24084;SDS011;12268;52.110;5.548;2024-02-16T14:26:43;7.32;;;4.25;;
24084;SDS011;12268;52.110;5.548;2024-02-16T14:29:08;7.88;;;3.95;;
24084;SDS011;12268;52.110;5.548;2024-02-16T14:31:34;9.00;;;4.40;;
24084;SDS011;12268;52.110;5.548;2024-02-16T14:34:00;5.80;;;4.05;;
24084;SDS011;12268;52.110;5.548;2024-02-16T14:36:25;6.90;;;4.55;;
24084;SDS011;12268;52.110;5.548;2024-02-16T14:38:51;8.48;;;4.18;;
24084;SDS011;12268;52.110;5.548;2024-02-16T14:41:17;9.35;;;4.70;;
24084;SDS011;12268;52.110;5.548;2024-02-16T14:43:42;7.03;;;4.85;;
24084;SDS011;12268;52.110;5.548;2024-02-16T14:46:08;12.48;;;5.00;;
24084;SDS011;12268;52.110;5.548;2024-02-16T14:48:34;8.82;;;5.22;;
24084;SDS011;12268;52.110;5.548;2024-02-16T14:51:00;10.07;;;6.00;;
24084;SDS011;12268;52.110;5.548;2024-02-16T14:53:27;7.63;;;4.82;;
24084;SDS011;12268;52.110;5.548;2024-02-16T14:55:55;9.02;;;5.05;;
24084;SDS011;12268;52.110;5.548;2024-02-16T14:58:21;10.23;;;4.72;;
24084;SDS011;12268;52.110;5.548;2024-02-16T15:00:46;11.57;;;5.72;;
24084;SDS011;12268;52.110;5.548;2024-02-16T15:03:12;9.07;;;5.97;;
24084;SDS011;12268;52.110;5.548;2024-02-16T15:05:41;8.60;;;5.57;;
24084;SDS011;12268;52.110;5.548;2024-02-16T15:08:06;9.27;;;6.22;;
24084;SDS011;12268;52.110;5.548;2024-02-16T15:10:32;8.10;;;5.72;;
24084;SDS011;12268;52.110;5.548;2024-02-16T15:12:58;10.48;;;6.22;;
24084;SDS011;12268;52.110;5.548;2024-02-16T15:15:23;11.98;;;6.05;;
24084;SDS011;12268;52.110;5.548;2024-02-16T15:17:49;9.75;;;5.75;;
24084;SDS011;12268;52.110;5.548;2024-02-16T15:20:14;10.13;;;5.80;;
24084;SDS011;12268;52.110;5.548;2024-02-16T15:22:40;10.52;;;6.20;;
24084;SDS011;12268;52.110;5.548;2024-02-16T15:25:06;8.65;;;6.05;;
24084;SDS011;12268;52.110;5.548;2024-02-16T15:27:33;6.80;;;5.38;;
24084;SDS011;12268;52.110;5.548;2024-02-16T15:30:00;9.63;;;5.82;;
24084;SDS011;12268;52.110;5.548;2024-02-16T15:32:26;7.07;;;5.25;;
24084;SDS011;12268;52.110;5.548;2024-02-16T15:34:52;8.32;;;6.45;;
24084;SDS011;12268;52.110;5.548;2024-02-16T15:37:19;9.13;;;6.47;;
24084;SDS011;12268;52.110;5.548;2024-02-16T15:39:46;9.88;;;7.45;;
24084;SDS011;12268;52.110;5.548;2024-02-16T15:42:12;12.30;;;7.97;;
24084;SDS011;12268;52.110;5.548;2024-02-16T15:44:38;12.88;;;7.80;;
24084;SDS011;12268;52.110;5.548;2024-02-16T15:47:04;11.85;;;7.80;;
24084;SDS011;12268;52.110;5.548;2024-02-16T15:49:29;12.52;;;8.45;;
24084;SDS011;12268;52.110;5.548;2024-02-16T15:51:55;11.35;;;7.63;;
24084;SDS011;12268;52.110;5.548;2024-02-16T15:54:20;13.82;;;7.65;;
24084;SDS011;12268;52.110;5.548;2024-02-16T15:56:50;11.85;;;7.40;;
24084;SDS011;12268;52.110;5.548;2024-02-16T15:59:17;11.73;;;8.93;;
24084;SDS011;12268;52.110;5.548;2024-02-16T16:01:43;12.43;;;8.40;;
24084;SDS011;12268;52.110;5.548;2024-02-16T16:04:08;15.65;;;8.75;;
24084;SDS011;12268;52.110;5.548;2024-02-16T16:06:34;14.05;;;9.68;;
24084;SDS011;12268;52.110;5.548;2024-02-16T16:09:00;14.68;;;9.13;;
24084;SDS011;12268;52.110;5.548;2024-02-16T16:11:31;16.02;;;11.20;;
24084;SDS011;12268;52.110;5.548;2024-02-16T16:13:56;14.32;;;10.10;;
24084;SDS011;12268;52.110;5.548;2024-02-16T16:16:22;16.40;;;10.80;;
24084;SDS011;12268;52.110;5.548;2024-02-16T16:18:47;18.50;;;10.98;;
24084;SDS011;12268;52.110;5.548;2024-02-16T16:21:13;14.57;;;10.35;;
24084;SDS011;12268;52.110;5.548;2024-02-16T16:23:39;15.93;;;10.98;;
24084;SDS011;12268;52.110;5.548;2024-02-16T16:26:05;15.60;;;10.80;;
24084;SDS011;12268;52.110;5.548;2024-02-16T16:28:30;16.30;;;11.38;;
24084;SDS011;12268;52.110;5.548;2024-02-16T16:30:56;18.83;;;11.68;;
24084;SDS011;12268;52.110;5.548;2024-02-16T16:33:22;17.20;;;11.82;;
24084;SDS011;12268;52.110;5.548;2024-02-16T16:35:48;18.25;;;11.98;;
24084;SDS011;12268;52.110;5.548;2024-02-16T16:38:16;18.83;;;11.07;;
24084;SDS011;12268;52.110;5.548;2024-02-16T16:40:44;17.08;;;11.68;;
24084;SDS011;12268;52.110;5.548;2024-02-16T16:43:10;18.73;;;11.93;;
24084;SDS011;12268;52.110;5.548;2024-02-16T16:45:36;17.95;;;12.23;;
24084;SDS011;12268;52.110;5.548;2024-02-16T16:48:02;20.45;;;12.98;;
24084;SDS011;12268;52.110;5.548;2024-02-16T16:50:28;21.30;;;12.95;;
24084;SDS011;12268;52.110;5.548;2024-02-16T16:52:54;20.55;;;12.57;;
24084;SDS011;12268;52.110;5.548;2024-02-16T16:55:20;20.50;;;13.80;;
24084;SDS011;12268;52.110;5.548;2024-02-16T16:57:45;20.33;;;13.60;;
24084;SDS011;12268;52.110;5.548;2024-02-16T17:00:11;23.40;;;13.65;;
24084;SDS011;12268;52.110;5.548;2024-02-16T17:02:38;23.40;;;14.60;;
24084;SDS011;12268;52.110;5.548;2024-02-16T17:05:04;24.00;;;15.18;;
24084;SDS011;12268;52.110;5.548;2024-02-16T17:07:29;20.05;;;14.15;;
24084;SDS011;12268;52.110;5.548;2024-02-16T17:09:56;21.75;;;14.07;;
24084;SDS011;12268;52.110;5.548;2024-02-16T17:12:22;22.20;;;14.32;;
24084;SDS011;12268;52.110;5.548;2024-02-16T17:14:49;26.23;;;14.68;;
24084;SDS011;12268;52.110;5.548;2024-02-16T17:17:18;23.42;;;14.40;;
24084;SDS011;12268;52.110;5.548;2024-02-16T17:19:44;25.30;;;15.55;;
24084;SDS011;12268;52.110;5.548;2024-02-16T17:22:10;22.88;;;15.05;;